createdAt,value
2023-04-09T00:01:06.624Z,102326.53
2023-04-09T00:04:09.648Z,102328.59
2023-04-09T00:07:12.625Z,102329.38
2023-04-09T00:10:16.883Z,102322.56
2023-04-09T00:13:31.937Z,102333.06
2023-04-09T00:16:41.922Z,102323.72
2023-04-09T00:19:44.849Z,102323.03
2023-04-09T00:22:48.615Z,102319.34
2023-04-09T00:25:51.333Z,102313.25
2023-04-09T00:28:55.666Z,102320.88
2023-04-09T00:31:58.729Z,102318.72
2023-04-09T00:35:03.033Z,102316.78
2023-04-09T00:38:05.951Z,102314.91
2023-04-09T00:41:08.802Z,102312.22
2023-04-09T00:44:13.213Z,102304.84
2023-04-09T00:47:16.149Z,102312.03
2023-04-09T00:50:19.416Z,102312.13
2023-04-09T00:53:22.547Z,102309.72
2023-04-09T00:56:25.673Z,102308.69
2023-04-09T00:59:30.364Z,102313.22
2023-04-09T01:02:34.555Z,102311.16
2023-04-09T01:05:45.342Z,102308.34
2023-04-09T01:08:58.379Z,102305.59
2023-04-09T01:12:16.320Z,102308.56
2023-04-09T01:15:26.937Z,102304.28
2023-04-09T01:18:35.734Z,102301.31
2023-04-09T01:21:40.276Z,102306.13
2023-04-09T01:24:53.898Z,102315.03
2023-04-09T01:28:17.451Z,102306.31
2023-04-09T01:31:23.351Z,102308.53
2023-04-09T01:34:27.503Z,102305.81
2023-04-09T01:37:31.073Z,102307.84
2023-04-09T01:40:35.558Z,102316.53
2023-04-09T01:43:43.789Z,102315.09
2023-04-09T01:46:48.135Z,102314.53
2023-04-09T01:49:53.603Z,102320.66
2023-04-09T01:52:56.436Z,102323.47
2023-04-09T01:56:01.710Z,102317.75
2023-04-09T01:59:05.909Z,102327.31
2023-04-09T02:02:13.738Z,102330.22
2023-04-09T02:05:20.549Z,102336.06
2023-04-09T02:08:26.458Z,102324.09
2023-04-09T02:11:30.727Z,102330.00
2023-04-09T02:14:36.285Z,102334.88
2023-04-09T02:17:39.440Z,102340.16
2023-04-09T02:20:42.590Z,102340.28
2023-04-09T02:23:45.600Z,102335.19
2023-04-09T02:26:50.251Z,102338.56
2023-04-09T02:29:54.786Z,102336.06
2023-04-09T02:32:57.603Z,102336.63
2023-04-09T02:36:01.027Z,102340.75
2023-04-09T02:39:04.094Z,102347.25
2023-04-09T02:42:07.957Z,102341.44
2023-04-09T02:45:12.681Z,102336.47
2023-04-09T02:48:15.509Z,102340.06
2023-04-09T02:51:18.361Z,102337.16
2023-04-09T02:54:21.473Z,102348.78
2023-04-09T02:57:24.322Z,102350.47
2023-04-09T03:00:28.844Z,102340.16
2023-04-09T03:03:33.059Z,102335.13
2023-04-09T03:06:36.192Z,102339.53
2023-04-09T03:09:38.885Z,102341.06
2023-04-09T03:12:44.555Z,102336.69
2023-04-09T03:15:52.908Z,102330.19
2023-04-09T03:18:55.920Z,102343.72
2023-04-09T03:22:06.597Z,102339.78
2023-04-09T03:25:10.332Z,102341.00
2023-04-09T03:28:13.209Z,102324.09
2023-04-09T03:31:17.374Z,102330.03
2023-04-09T03:34:20.203Z,102322.03
2023-04-09T03:37:23.111Z,102327.50
2023-04-09T03:40:26.028Z,102326.91
2023-04-09T03:43:28.885Z,102323.28
2023-04-09T03:46:33.339Z,102321.88
2023-04-09T03:49:36.662Z,102319.06
2023-04-09T03:52:39.925Z,102320.38
2023-04-09T03:55:43.104Z,102323.28
2023-04-09T03:58:45.979Z,102325.63
2023-04-09T04:01:51.268Z,102323.19
2023-04-09T04:04:54.031Z,102314.63
2023-04-09T04:07:57.272Z,102316.91
2023-04-09T04:11:04.835Z,102316.97
2023-04-09T04:14:07.625Z,102316.63
2023-04-09T04:17:12.216Z,102321.41
2023-04-09T04:20:15.341Z,102326.97
2023-04-09T04:23:18.037Z,102321.78
2023-04-09T04:26:21.010Z,102324.44
2023-04-09T04:29:23.750Z,102331.44
2023-04-09T04:32:28.348Z,102326.19
2023-04-09T04:35:31.153Z,102333.31
2023-04-09T04:38:34.552Z,102327.63
2023-04-09T04:41:37.293Z,102327.63
2023-04-09T04:44:40.124Z,102332.84
2023-04-09T04:47:44.410Z,102334.34
2023-04-09T04:50:47.462Z,102340.66
2023-04-09T04:53:50.276Z,102341.22
2023-04-09T04:56:53.289Z,102333.06
2023-04-09T04:59:56.318Z,102341.88
2023-04-09T05:03:00.873Z,102343.28
2023-04-09T05:06:03.691Z,102343.38
2023-04-09T05:09:06.448Z,102342.16
2023-04-09T05:12:09.601Z,102348.03
2023-04-09T05:15:12.514Z,102345.28
2023-04-09T05:18:16.759Z,102336.69
2023-04-09T05:21:19.582Z,102335.91
2023-04-09T05:24:22.319Z,102341.25
2023-04-09T05:27:26.027Z,102343.91
2023-04-09T05:30:28.797Z,102338.22
2023-04-09T05:33:37.865Z,102335.88
2023-04-09T05:36:41.470Z,102344.34
2023-04-09T05:39:44.227Z,102344.34
2023-04-09T05:42:48.192Z,102353.53
2023-04-09T05:45:51.223Z,102354.84
2023-04-09T05:48:55.687Z,102360.75
2023-04-09T05:51:58.712Z,102353.44
2023-04-09T05:55:01.527Z,102355.22
2023-04-09T05:58:04.303Z,102364.88
2023-04-09T06:01:07.412Z,102361.50
2023-04-09T06:04:11.998Z,102364.88
2023-04-09T06:07:15.263Z,102365.94
2023-04-09T06:10:18.377Z,102355.13
2023-04-09T06:13:21.275Z,102354.53
2023-04-09T06:16:24.135Z,102365.53
2023-04-09T06:19:28.613Z,102367.75
2023-04-09T06:22:31.781Z,102364.03
2023-04-09T06:25:35.329Z,102363.47
2023-04-09T06:28:38.574Z,102367.16
2023-04-09T06:31:41.974Z,102370.16
2023-04-09T06:34:46.168Z,102362.88
2023-04-09T06:37:49.023Z,102369.88
2023-04-09T06:40:52.092Z,102368.34
2023-04-09T06:43:55.610Z,102368.44
2023-04-09T06:46:58.346Z,102381.34
2023-04-09T06:50:03.041Z,102382.66
2023-04-09T06:53:07.675Z,102378.50
2023-04-09T06:56:10.402Z,102377.84
2023-04-09T06:59:13.273Z,102381.38
2023-04-09T07:02:16.160Z,102381.09
2023-04-09T07:05:20.868Z,102380.66
2023-04-09T07:08:24.011Z,102385.53
2023-04-09T07:11:26.786Z,102383.81
2023-04-09T07:14:30.937Z,102385.31
2023-04-09T07:17:34.934Z,102384.97
2023-04-09T07:20:39.175Z,102390.09
2023-04-09T07:23:42.511Z,102393.81
2023-04-09T07:26:45.452Z,102393.94
2023-04-09T07:29:48.281Z,102388.78
2023-04-09T07:32:51.612Z,102395.63
2023-04-09T07:35:56.153Z,102398.22
2023-04-09T07:39:00.652Z,102396.28
2023-04-09T07:42:04.448Z,102397.50
2023-04-09T07:45:08.432Z,102394.53
2023-04-09T07:48:12.996Z,102395.31
2023-04-09T07:51:17.522Z,102405.06
2023-04-09T07:54:21.228Z,102409.16
2023-04-09T07:57:23.916Z,102411.38
2023-04-09T08:00:27.295Z,102402.94
2023-04-09T08:03:30.215Z,102406.97
2023-04-09T08:06:34.561Z,102406.56
2023-04-09T08:09:37.318Z,102404.69
2023-04-09T08:12:40.331Z,102413.84
2023-04-09T08:15:43.102Z,102424.25
2023-04-09T08:18:46.200Z,102421.59
2023-04-09T08:21:50.715Z,102416.84
2023-04-09T08:24:54.326Z,102415.72
2023-04-09T08:27:58.264Z,102422.81
2023-04-09T08:31:04.529Z,102424.28
2023-04-09T08:34:07.634Z,102421.34
2023-04-09T08:37:11.873Z,102421.75
2023-04-09T08:40:15.499Z,102425.94
2023-04-09T08:43:23.660Z,102427.72
2023-04-09T08:46:28.518Z,102433.22
2023-04-09T08:49:31.223Z,102428.91
2023-04-09T08:52:36.443Z,102426.56
2023-04-09T08:55:39.518Z,102427.19
2023-04-09T08:58:44.709Z,102425.31
2023-04-09T09:01:52.834Z,102425.78
2023-04-09T09:05:00.810Z,102420.81
2023-04-09T09:08:05.481Z,102422.66
2023-04-09T09:11:08.330Z,102416.34
2023-04-09T09:14:12.541Z,102417.81
2023-04-09T09:17:15.531Z,102421.09
2023-04-09T09:20:22.862Z,102415.50
2023-04-09T09:23:37.876Z,102411.31
2023-04-09T09:26:41.023Z,102418.44
2023-04-09T09:29:44.926Z,102417.13
2023-04-09T09:32:47.810Z,102415.22
2023-04-09T09:35:51.592Z,102410.19
2023-04-09T09:38:57.537Z,102416.41
2023-04-09T09:42:10.095Z,102402.97
2023-04-09T09:45:19.472Z,102414.81
2023-04-09T09:48:22.263Z,102406.25
2023-04-09T09:51:31.050Z,102404.19
2023-04-09T09:54:41.653Z,102409.91
2023-04-09T09:57:47.313Z,102399.22
2023-04-09T10:00:52.770Z,102408.09
2023-04-09T10:03:59.634Z,102396.50
2023-04-09T10:07:05.786Z,102403.84
2023-04-09T10:10:11.029Z,102401.63
2023-04-09T10:13:21.870Z,102401.81
2023-04-09T10:16:25.978Z,102401.38
2023-04-09T10:19:29.063Z,102401.41
2023-04-09T10:22:34.792Z,102397.81
2023-04-09T10:25:38.938Z,102393.81
2023-04-09T10:28:42.056Z,102391.94
2023-04-09T10:31:55.203Z,102383.50
2023-04-09T10:34:59.304Z,102389.41
2023-04-09T10:38:02.301Z,102391.72
2023-04-09T10:41:14.048Z,102385.81
2023-04-09T10:44:24.520Z,102386.25
2023-04-09T10:47:34.191Z,102384.38
2023-04-09T10:50:38.068Z,102383.91
2023-04-09T10:53:40.915Z,102390.84
2023-04-09T10:57:13.741Z,102392.19
2023-04-09T11:00:18.676Z,102387.00
2023-04-09T11:03:23.804Z,102395.50
2023-04-09T11:06:27.744Z,102388.81
2023-04-09T11:09:30.806Z,102389.38
2023-04-09T11:12:35.141Z,102380.88
2023-04-09T11:15:38.309Z,102378.88
2023-04-09T11:18:42.107Z,102386.66
2023-04-09T11:21:46.209Z,102376.56
2023-04-09T11:24:50.775Z,102380.16
2023-04-09T11:27:55.705Z,102381.44
2023-04-09T11:30:58.432Z,102375.50
2023-04-09T11:34:01.134Z,102368.94
2023-04-09T11:37:09.107Z,102364.38
2023-04-09T11:40:22.156Z,102367.06
2023-04-09T11:43:26.601Z,102369.28
2023-04-09T11:46:29.735Z,102369.13
2023-04-09T11:49:32.558Z,102365.78
2023-04-09T11:52:35.875Z,102363.44
2023-04-09T11:55:38.583Z,102367.22
2023-04-09T11:58:47.065Z,102359.78
2023-04-09T12:01:51.204Z,102354.41
2023-04-09T12:04:54.208Z,102355.47
2023-04-09T12:07:59.832Z,102349.56
2023-04-09T12:11:10.417Z,102345.56
2023-04-09T12:14:16.742Z,102339.25
2023-04-09T12:17:22.009Z,102345.53
2023-04-09T12:20:32.387Z,102341.56
2023-04-09T12:23:35.337Z,102341.97
2023-04-09T12:26:38.041Z,102341.75
2023-04-09T12:29:42.205Z,102340.06
2023-04-09T12:32:45.939Z,102342.09
2023-04-09T12:35:48.818Z,102337.50
2023-04-09T12:38:51.952Z,102331.03
2023-04-09T12:41:54.995Z,102325.91
2023-04-09T12:44:59.245Z,102327.56
2023-04-09T12:48:02.268Z,102327.16
2023-04-09T12:51:05.959Z,102320.72
2023-04-09T12:54:08.827Z,102310.94
2023-04-09T12:57:11.537Z,102316.13
2023-04-09T13:00:17.070Z,102314.78
2023-04-09T13:03:19.889Z,102308.78
2023-04-09T13:06:23.258Z,102305.47
2023-04-09T13:09:26.425Z,102305.72
2023-04-09T13:12:29.164Z,102305.69
2023-04-09T13:15:33.313Z,102301.63
2023-04-09T13:18:36.304Z,102298.63
2023-04-09T13:21:39.314Z,102292.94
2023-04-09T13:24:43.282Z,102297.50
2023-04-09T13:27:46.067Z,102289.75
2023-04-09T13:30:51.365Z,102286.47
2023-04-09T13:33:54.326Z,102283.84
2023-04-09T13:36:57.219Z,102289.31
2023-04-09T13:40:00.143Z,102282.38
2023-04-09T13:43:02.851Z,102274.88
2023-04-09T13:46:07.564Z,102284.81
2023-04-09T13:49:10.298Z,102279.00
2023-04-09T13:52:13.092Z,102275.34
2023-04-09T13:55:15.819Z,102268.06
2023-04-09T13:58:18.628Z,102267.53
2023-04-09T14:01:22.975Z,102264.47
2023-04-09T14:04:25.691Z,102256.22
2023-04-09T14:07:28.680Z,102263.25
2023-04-09T14:10:31.396Z,102256.91
2023-04-09T14:13:34.286Z,102252.50
2023-04-09T14:16:38.913Z,102244.75
2023-04-09T14:19:41.639Z,102248.94
2023-04-09T14:22:49.123Z,102245.16
2023-04-09T14:25:51.786Z,102249.31
2023-04-09T14:28:55.025Z,102247.09
2023-04-09T14:31:59.965Z,102249.00
2023-04-09T14:35:03.008Z,102250.75
2023-04-09T14:38:05.746Z,102248.78
2023-04-09T14:41:08.678Z,102247.66
2023-04-09T14:44:11.464Z,102242.47
2023-04-09T14:47:16.066Z,102231.63
2023-04-09T14:50:19.070Z,102239.53
2023-04-09T14:53:21.844Z,102235.28
2023-04-09T14:56:25.125Z,102230.34
2023-04-09T14:59:27.813Z,102231.56
2023-04-09T15:02:32.090Z,102223.66
2023-04-09T15:05:34.899Z,102228.88
2023-04-09T15:08:37.590Z,102223.59
2023-04-09T15:11:41.267Z,102224.09
2023-04-09T15:14:43.935Z,102225.75
2023-04-09T15:17:48.029Z,102223.00
2023-04-09T15:20:51.147Z,102232.00
2023-04-09T15:23:54.402Z,102223.88
2023-04-09T15:26:57.811Z,102217.88
2023-04-09T15:30:00.689Z,102224.59
2023-04-09T15:33:06.207Z,102223.97
2023-04-09T15:36:09.835Z,102223.84
2023-04-09T15:42:33.137Z,102212.13
2023-04-09T15:45:35.850Z,102212.00
2023-04-09T15:48:40.121Z,102216.81
2023-04-09T15:51:42.990Z,102217.91
2023-04-09T15:54:45.786Z,102219.47
2023-04-09T15:57:48.470Z,102222.81
2023-04-09T16:00:51.598Z,102219.13
2023-04-09T16:03:56.358Z,102224.13
2023-04-09T16:06:59.298Z,102220.78
2023-04-09T16:10:02.310Z,102225.56
2023-04-09T16:13:05.638Z,102222.69
2023-04-09T16:16:08.813Z,102221.19
2023-04-09T16:19:12.996Z,102224.25
2023-04-09T16:22:15.733Z,102222.78
2023-04-09T16:25:18.526Z,102225.53
2023-04-09T16:28:22.364Z,102227.53
2023-04-09T16:31:25.085Z,102230.09
2023-04-09T16:34:31.540Z,102234.16
2023-04-09T16:37:35.167Z,102225.75
2023-04-09T16:40:38.030Z,102227.09
2023-04-09T16:43:41.170Z,102226.47
2023-04-09T16:46:44.109Z,102226.78
2023-04-09T16:49:48.341Z,102226.03
2023-04-09T16:52:51.417Z,102221.91
2023-04-09T16:55:54.148Z,102216.84
2023-04-09T16:58:56.989Z,102212.69
2023-04-09T17:01:59.785Z,102218.56
2023-04-09T17:05:04.572Z,102216.59
2023-04-09T17:08:07.333Z,102217.91
2023-04-09T17:11:10.232Z,102224.47
2023-04-09T17:14:13.041Z,102226.25
2023-04-09T17:17:16.139Z,102229.16
2023-04-09T17:20:20.854Z,102231.28
2023-04-09T17:23:23.861Z,102227.53
2023-04-09T17:26:27.113Z,102231.28
2023-04-09T17:29:29.839Z,102230.69
2023-04-09T17:32:32.582Z,102231.97
2023-04-09T17:35:36.721Z,102230.41
2023-04-09T17:38:39.629Z,102229.19
2023-04-09T17:41:43.719Z,102228.56
2023-04-09T17:44:46.549Z,102233.47
2023-04-09T17:47:51.144Z,102230.38
2023-04-09T17:50:55.450Z,102237.19
2023-04-09T17:53:58.191Z,102240.03
2023-04-09T17:57:01.017Z,102229.59
2023-04-09T18:00:05.051Z,102233.81
2023-04-09T18:03:07.966Z,102227.09
2023-04-09T18:06:12.397Z,102230.53
2023-04-09T18:09:15.590Z,102230.63
2023-04-09T18:12:18.316Z,102224.56
2023-04-09T18:15:21.839Z,102227.38
2023-04-09T18:18:24.775Z,102213.13
2023-04-09T18:21:28.868Z,102225.19
2023-04-09T18:24:33.566Z,102225.03
2023-04-09T18:27:36.325Z,102224.66
2023-04-09T18:30:39.766Z,102230.59
2023-04-09T18:33:42.689Z,102233.41
2023-04-09T18:36:47.304Z,102237.81
2023-04-09T18:39:50.223Z,102240.78
2023-04-09T18:42:53.439Z,102245.84
2023-04-09T18:45:56.297Z,102249.66
2023-04-09T18:48:59.772Z,102248.44
2023-04-09T18:52:05.366Z,102251.78
2023-04-09T18:55:09.524Z,102259.19
2023-04-09T18:58:15.045Z,102257.47
2023-04-09T19:01:19.806Z,102257.28
2023-04-09T19:04:22.831Z,102262.13
2023-04-09T19:07:27.315Z,102260.44
2023-04-09T19:10:30.686Z,102260.63
2023-04-09T19:13:33.498Z,102260.00
2023-04-09T19:16:36.398Z,102262.91
2023-04-09T19:19:39.371Z,102266.50
2023-04-09T19:22:47.784Z,102263.75
2023-04-09T19:25:52.625Z,102267.72
2023-04-09T19:28:55.769Z,102263.50
2023-04-09T19:31:58.749Z,102265.38
2023-04-09T19:35:01.822Z,102256.75
2023-04-09T19:38:06.414Z,102261.13
2023-04-09T19:41:09.338Z,102266.38
2023-04-09T19:44:12.417Z,102265.94
2023-04-09T19:47:16.805Z,102261.72
2023-04-09T19:50:19.794Z,102270.75
2023-04-09T19:53:23.902Z,102272.59
2023-04-09T19:56:26.825Z,102277.75
2023-04-09T19:59:29.801Z,102273.69
2023-04-09T20:02:32.613Z,102276.19
2023-04-09T20:05:35.857Z,102271.31
2023-04-09T20:08:40.764Z,102278.84
2023-04-09T20:11:43.823Z,102275.47
2023-04-09T20:14:47.183Z,102278.22
2023-04-09T20:17:50.944Z,102278.66
2023-04-09T20:20:54.053Z,102273.41
2023-04-09T20:23:58.095Z,102280.59
2023-04-09T20:27:01.647Z,102282.31
2023-04-09T20:30:04.980Z,102280.84
2023-04-09T20:33:07.746Z,102275.72
2023-04-09T20:36:16.240Z,102277.91
2023-04-09T20:39:20.521Z,102273.97
2023-04-09T20:42:23.243Z,102269.97
2023-04-09T20:45:26.133Z,102276.16
2023-04-09T20:48:31.339Z,102273.28
2023-04-09T20:51:34.102Z,102274.53
2023-04-09T20:54:39.346Z,102277.72
2023-04-09T20:57:42.372Z,102269.25
2023-04-09T21:00:45.224Z,102268.00
2023-04-09T21:03:48.042Z,102271.09
2023-04-09T21:06:50.980Z,102264.59
2023-04-09T21:09:55.075Z,102257.19
2023-04-09T21:12:57.782Z,102260.38
2023-04-09T21:16:00.575Z,102255.91
2023-04-09T21:19:06.955Z,102258.63
2023-04-09T21:22:10.069Z,102254.28
2023-04-09T21:25:15.497Z,102249.38
2023-04-09T21:28:18.484Z,102253.88
2023-04-09T21:31:22.070Z,102249.09
2023-04-09T21:34:25.004Z,102248.97
2023-04-09T21:37:28.976Z,102244.13
2023-04-09T21:40:33.610Z,102250.97
2023-04-09T21:43:38.238Z,102249.91
2023-04-09T21:46:42.684Z,102254.34
2023-04-09T21:49:46.378Z,102255.00
2023-04-09T21:52:49.186Z,102257.91
2023-04-09T21:55:53.405Z,102262.41
2023-04-09T21:58:56.264Z,102271.88
2023-04-09T22:01:59.180Z,102271.16
2023-04-09T22:05:02.053Z,102270.50
2023-04-09T22:08:04.869Z,102267.91
2023-04-09T22:11:09.046Z,102264.44
2023-04-09T22:14:11.939Z,102272.66
2023-04-09T22:17:14.809Z,102262.19
2023-04-09T22:20:17.586Z,102263.75
2023-04-09T22:23:20.651Z,102255.00
2023-04-09T22:26:24.966Z,102266.50
2023-04-09T22:29:28.312Z,102269.19
2023-04-09T22:32:33.435Z,102267.09
2023-04-09T22:35:36.405Z,102269.72
2023-04-09T22:38:39.268Z,102265.91
2023-04-09T22:41:43.464Z,102273.38
2023-04-09T22:44:46.383Z,102280.91
2023-04-09T22:47:49.400Z,102271.72
2023-04-09T22:50:52.157Z,102285.28
2023-04-09T22:53:55.026Z,102285.25
2023-04-09T22:56:59.119Z,102279.03
2023-04-09T23:00:02.024Z,102275.84
2023-04-09T23:03:05.096Z,102279.22
2023-04-09T23:06:08.077Z,102278.19
2023-04-09T23:09:11.037Z,102269.50
2023-04-09T23:12:15.425Z,102278.75
2023-04-09T23:15:18.306Z,102278.28
2023-04-09T23:18:21.214Z,102280.22
2023-04-09T23:21:23.942Z,102279.53
2023-04-09T23:24:26.837Z,102273.88
2023-04-09T23:27:31.081Z,102278.56
2023-04-09T23:30:33.899Z,102275.69
2023-04-09T23:33:36.887Z,102272.75
2023-04-09T23:36:39.966Z,102264.59
2023-04-09T23:39:43.214Z,102266.06
2023-04-09T23:42:47.911Z,102258.38
2023-04-09T23:45:50.845Z,102257.19
2023-04-09T23:48:53.659Z,102267.84
2023-04-09T23:51:56.329Z,102271.66
2023-04-09T23:54:59.992Z,102262.44
2023-04-09T23:58:04.070Z,102258.13
